Time;durP1;ratioP1;P1;durP2;ratioP2;P2;SDS_P1;SDS_P2;PMS_P1;PMS_P2;Temp;Humidity;BMP_temperature;BMP_pressure;BME280_temperature;BME280_humidity;BME280_pressure;Samples;Min_cycle;Max_cycle;Signal;HPM_P1;HPM_P2
2022/05/22 00:00:02;;;;;;;2.27;1.60;;;13.00;99.90;;;;;;5015011;28;20215;-59
2022/05/22 00:02:28;;;;;;;4.53;1.80;;;13.00;99.90;;;;;;5014856;28;20207;-59
2022/05/22 00:04:55;;;;;;;2.13;1.50;;;12.90;99.90;;;;;;5014755;28;20262;-60
2022/05/22 00:07:22;;;;;;;4.40;1.67;;;12.90;99.90;;;;;;5014648;28;20210;-60
2022/05/22 00:09:50;;;;;;;2.80;1.63;;;12.90;99.90;;;;;;5014397;28;20592;-59
2022/05/22 00:12:17;;;;;;;3.03;1.53;;;12.80;99.90;;;;;;5014606;28;20211;-59
2022/05/22 00:14:44;;;;;;;4.77;2.00;;;12.80;99.90;;;;;;5014463;28;20326;-60
2022/05/22 00:17:11;;;;;;;4.10;1.80;;;12.90;99.90;;;;;;5014636;28;20356;-59
2022/05/22 00:19:39;;;;;;;2.63;1.73;;;12.80;99.90;;;;;;5014792;28;20207;-59
2022/05/22 00:22:07;;;;;;;4.00;1.57;;;12.80;99.90;;;;;;5014186;28;20218;-59
2022/05/22 00:24:34;;;;;;;5.20;1.97;;;12.70;99.90;;;;;;5014594;28;20237;-59
2022/05/22 00:27:02;;;;;;;2.57;1.70;;;12.60;99.90;;;;;;5014461;28;20206;-59
2022/05/22 00:29:30;;;;;;;3.47;1.70;;;12.60;99.90;;;;;;5014450;28;20241;-59
2022/05/22 00:31:58;;;;;;;3.83;2.33;;;12.60;99.90;;;;;;5014597;28;20210;-59
2022/05/22 00:34:25;;;;;;;1.83;1.60;;;12.60;99.90;;;;;;5014024;28;20253;-59
2022/05/22 00:36:52;;;;;;;3.57;1.60;;;12.50;99.90;;;;;;5014304;28;20253;-59
2022/05/22 00:39:19;;;;;;;3.80;1.73;;;12.50;99.90;;;;;;5014343;28;20229;-59
2022/05/22 00:41:50;;;;;;;4.33;1.70;;;12.40;99.90;;;;;;5014347;28;20346;-59
2022/05/22 00:44:18;;;;;;;2.13;1.70;;;12.40;99.90;;;;;;5013706;28;20798;-60
2022/05/22 00:46:45;;;;;;;2.40;1.87;;;12.40;99.90;;;;;;5013994;28;20229;-59
2022/05/22 00:49:16;;;;;;;3.50;1.70;;;12.40;99.90;;;;;;5014009;28;20203;-61
2022/05/22 00:51:48;;;;;;;3.13;1.60;;;12.40;99.90;;;;;;5014043;28;20322;-59
2022/05/22 00:54:19;;;;;;;1.70;1.50;;;12.40;99.90;;;;;;5013788;28;20235;-59
2022/05/22 00:56:50;;;;;;;3.77;1.50;;;12.40;99.90;;;;;;5012779;28;20211;-59
2022/05/22 00:59:23;;;;;;;2.90;1.90;;;12.40;99.90;;;;;;5013857;28;20221;-59
2022/05/22 01:01:50;;;;;;;2.27;1.73;;;12.20;99.90;;;;;;5013736;28;20261;-59
2022/05/22 01:04:21;;;;;;;3.87;1.87;;;12.20;99.90;;;;;;5013649;28;20336;-59
2022/05/22 01:06:48;;;;;;;2.10;1.60;;;12.20;99.90;;;;;;5013950;28;20211;-59
2022/05/22 01:09:16;;;;;;;4.37;2.00;;;12.10;99.90;;;;;;5013832;28;20623;-59
2022/05/22 01:11:43;;;;;;;3.83;1.80;;;12.10;99.90;;;;;;5013640;28;20230;-59
2022/05/22 01:14:14;;;;;;;2.63;1.90;;;12.20;99.90;;;;;;5013294;28;20285;-59
2022/05/22 01:16:42;;;;;;;3.23;1.70;;;12.20;99.90;;;;;;5013521;28;20215;-59
2022/05/22 01:19:11;;;;;;;3.80;2.07;;;12.30;99.90;;;;;;5013365;28;20699;-60
2022/05/22 01:21:39;;;;;;;2.60;1.70;;;12.40;99.90;;;;;;5013640;28;20207;-60
2022/05/22 01:24:08;;;;;;;5.50;1.70;;;12.40;99.90;;;;;;5013434;28;20258;-60
2022/05/22 01:26:35;;;;;;;3.10;1.70;;;12.30;99.90;;;;;;5013320;28;20214;-60
2022/05/22 01:29:02;;;;;;;3.90;1.83;;;12.30;99.90;;;;;;5013515;28;20277;-60
2022/05/22 01:31:29;;;;;;;3.87;2.17;;;12.20;99.90;;;;;;5013417;28;20378;-60
2022/05/22 01:33:56;;;;;;;3.57;2.13;;;12.20;99.90;;;;;;5012808;28;20722;-59
2022/05/22 01:36:22;;;;;;;4.97;1.80;;;12.30;99.90;;;;;;5013180;28;20207;-59
2022/05/22 01:38:49;;;;;;;5.03;1.83;;;12.30;99.90;;;;;;5013253;28;20242;-58
2022/05/22 01:41:17;;;;;;;2.03;1.70;;;12.30;99.90;;;;;;5013155;28;20218;-59
2022/05/22 01:43:44;;;;;;;2.77;1.80;;;12.30;99.90;;;;;;5012733;28;20234;-59
2022/05/22 01:46:11;;;;;;;3.03;2.03;;;12.30;99.90;;;;;;5012907;28;20241;-58
2022/05/22 01:48:38;;;;;;;5.13;2.13;;;12.20;99.90;;;;;;5013000;28;20207;-60
2022/05/22 01:51:06;;;;;;;3.73;2.07;;;12.20;99.90;;;;;;5012957;28;20227;-60
2022/05/22 01:53:33;;;;;;;2.90;1.80;;;12.20;99.90;;;;;;5012633;28;20289;-59
2022/05/22 01:56:00;;;;;;;2.97;1.90;;;12.10;99.90;;;;;;5012713;28;20211;-60
2022/05/22 01:58:28;;;;;;;3.90;2.00;;;12.10;99.90;;;;;;5012701;28;20265;-59
2022/05/22 02:00:55;;;;;;;3.00;2.10;;;12.00;99.90;;;;;;5013031;28;20265;-59
2022/05/22 02:03:22;;;;;;;2.43;1.87;;;12.10;99.90;;;;;;5012425;28;20230;-60
2022/05/22 02:05:48;;;;;;;2.70;1.90;;;12.00;99.90;;;;;;5012702;28;20211;-59
2022/05/22 02:08:22;;;;;;;6.20;2.40;;;12.10;99.90;;;;;;5012328;28;20265;-59
2022/05/22 02:10:50;;;;;;;4.70;2.20;;;12.10;99.90;;;;;;5013388;28;20313;-59
2022/05/22 02:13:20;;;;;;;3.63;2.40;;;12.10;99.90;;;;;;5012609;28;20280;-59
2022/05/22 02:15:49;;;;;;;3.70;2.13;;;12.10;99.90;;;;;;5012780;28;20257;-60
2022/05/22 02:18:16;;;;;;;4.60;2.20;;;12.10;99.90;;;;;;5013505;28;20215;-60
2022/05/22 02:20:43;;;;;;;2.77;2.03;;;12.10;99.90;;;;;;5012341;28;20199;-60
2022/05/22 02:23:10;;;;;;;3.17;2.20;;;12.10;99.90;;;;;;5011996;28;20211;-58
2022/05/22 02:25:39;;;;;;;3.83;2.10;;;12.00;99.90;;;;;;5012444;28;20215;-58
2022/05/22 02:28:08;;;;;;;2.90;2.23;;;12.10;99.90;;;;;;5012440;28;20583;-60
2022/05/22 02:30:38;;;;;;;4.63;2.13;;;12.10;99.90;;;;;;5012335;28;20223;-60
2022/05/22 02:33:07;;;;;;;5.20;2.20;;;12.10;99.90;;;;;;5011891;28;20211;-60
2022/05/22 02:35:34;;;;;;;4.67;2.07;;;12.10;99.90;;;;;;5012154;28;20207;-60
2022/05/22 02:38:00;;;;;;;2.50;2.10;;;12.20;99.90;;;;;;5012285;28;20280;-60
2022/05/22 02:40:29;;;;;;;3.83;2.10;;;12.20;99.90;;;;;;5012271;28;20261;-60
2022/05/22 02:42:56;;;;;;;2.40;2.03;;;12.10;99.90;;;;;;5012041;28;20207;-59
2022/05/22 02:45:24;;;;;;;3.90;2.43;;;12.10;99.90;;;;;;5012154;28;20210;-61
2022/05/22 02:47:52;;;;;;;6.27;2.10;;;12.10;99.90;;;;;;5011863;28;20215;-60
2022/05/22 02:50:22;;;;;;;3.17;2.13;;;12.20;99.90;;;;;;5012344;28;20219;-62
2022/05/22 02:52:50;;;;;;;3.03;2.10;;;12.10;99.90;;;;;;5011987;28;20206;-60
2022/05/22 02:55:18;;;;;;;2.50;2.20;;;12.10;99.90;;;;;;5012259;28;20210;-59
2022/05/22 02:57:45;;;;;;;5.43;2.20;;;12.10;99.90;;;;;;5012254;28;20214;-59
2022/05/22 03:00:17;;;;;;;2.40;1.80;;;12.20;99.90;;;;;;5011954;28;20211;-59
2022/05/22 03:02:43;;;;;;;4.40;2.30;;;12.20;99.90;;;;;;5011636;28;20257;-59
2022/05/22 03:05:10;;;;;;;3.73;2.00;;;12.10;99.90;;;;;;5011780;28;20706;-60
2022/05/22 03:07:39;;;;;;;3.20;2.00;;;12.10;99.90;;;;;;5012007;28;20276;-59
2022/05/22 03:10:09;;;;;;;5.23;2.50;;;12.10;99.90;;;;;;5011926;28;20635;-60
2022/05/22 03:12:35;;;;;;;3.70;2.33;;;12.20;99.90;;;;;;5011600;28;20222;-60
2022/05/22 03:15:04;;;;;;;3.97;1.90;;;12.20;99.90;;;;;;5011568;28;20329;-59
2022/05/22 03:17:31;;;;;;;4.63;2.50;;;12.20;99.90;;;;;;5011661;28;20207;-59
2022/05/22 03:19:57;;;;;;;3.37;2.20;;;12.20;99.90;;;;;;5014089;28;20241;-59
2022/05/22 03:22:24;;;;;;;5.43;2.53;;;12.10;99.90;;;;;;5015536;28;20253;-59
2022/05/22 03:24:53;;;;;;;3.70;2.20;;;12.10;99.90;;;;;;5015572;28;20227;-58
2022/05/22 03:27:21;;;;;;;7.17;2.10;;;12.00;99.90;;;;;;5015492;28;20206;-59
2022/05/22 03:29:49;;;;;;;5.63;2.20;;;11.80;99.90;;;;;;5015253;28;20242;-59
2022/05/22 03:32:16;;;;;;;3.60;2.20;;;11.60;99.90;;;;;;5015457;28;20230;-59
2022/05/22 03:34:43;;;;;;;3.20;2.07;;;11.60;99.90;;;;;;5015050;28;20288;-59
2022/05/22 03:37:10;;;;;;;2.50;1.93;;;11.60;99.90;;;;;;5015283;28;20215;-59
2022/05/22 03:39:37;;;;;;;2.30;2.10;;;11.60;99.90;;;;;;5015345;28;20211;-60
2022/05/22 03:42:06;;;;;;;5.20;2.70;;;11.60;99.90;;;;;;5015350;28;20202;-60
2022/05/22 03:44:34;;;;;;;2.70;2.20;;;11.70;99.90;;;;;;5014833;28;20310;-60
2022/05/22 03:47:01;;;;;;;3.90;2.20;;;11.80;99.90;;;;;;5015341;28;20628;-60
2022/05/22 03:49:28;;;;;;;3.23;2.23;;;11.80;99.90;;;;;;5015178;28;20207;-60
2022/05/22 03:51:54;;;;;;;4.30;2.40;;;11.90;99.90;;;;;;5015014;28;20223;-60
2022/05/22 03:54:21;;;;;;;3.40;2.30;;;12.00;99.90;;;;;;5014655;28;20230;-60
2022/05/22 03:56:48;;;;;;;6.40;2.33;;;12.10;99.90;;;;;;5014944;28;20264;-60
2022/05/22 03:59:16;;;;;;;3.97;2.20;;;12.10;99.90;;;;;;5015121;28;20210;-60
2022/05/22 04:01:43;;;;;;;4.30;2.10;;;12.20;99.90;;;;;;5014988;28;20203;-60
2022/05/22 04:04:10;;;;;;;5.03;2.40;;;12.30;99.90;;;;;;5014648;28;20231;-60
2022/05/22 04:06:36;;;;;;;1.80;1.70;;;12.40;99.90;;;;;;5014857;28;20207;-60
2022/05/22 04:09:04;;;;;;;2.37;1.90;;;12.60;99.90;;;;;;5014740;28;20210;-61
2022/05/22 04:11:30;;;;;;;4.70;2.17;;;12.70;99.90;;;;;;5014482;28;20230;-60
2022/05/22 04:13:58;;;;;;;3.40;2.13;;;12.90;99.90;;;;;;5014426;28;20619;-60
2022/05/22 04:16:26;;;;;;;2.87;2.30;;;13.00;99.90;;;;;;5014739;28;20804;-60
2022/05/22 04:18:53;;;;;;;4.20;2.13;;;13.30;99.90;;;;;;5014631;28;20637;-59
2022/05/22 04:21:20;;;;;;;6.67;2.30;;;13.40;99.90;;;;;;5014542;28;20576;-58
2022/05/22 04:26:31;;;;;;;4.40;1.87;;;13.40;99.90;;;;;;5014497;28;20202;-59
2022/05/22 04:28:58;;;;;;;3.43;2.00;;;13.50;99.90;;;;;;5014497;28;20215;-59
2022/05/22 04:31:26;;;;;;;4.77;2.10;;;13.60;99.90;;;;;;5014066;28;20226;-59
2022/05/22 04:33:53;;;;;;;3.20;2.10;;;13.70;99.90;;;;;;5014149;28;20276;-59
2022/05/22 04:36:19;;;;;;;2.63;2.10;;;13.80;99.90;;;;;;5014149;28;20219;-59
2022/05/22 04:38:46;;;;;;;3.70;1.87;;;14.00;99.90;;;;;;5014107;28;20667;-59
2022/05/22 04:41:13;;;;;;;4.97;2.13;;;14.10;99.90;;;;;;5014003;28;20677;-58
2022/05/22 04:43:39;;;;;;;2.30;1.90;;;14.20;99.90;;;;;;5013902;28;20308;-58
2022/05/22 04:46:07;;;;;;;2.47;1.70;;;14.20;99.90;;;;;;5013827;28;20214;-62
2022/05/22 04:48:36;;;;;;;4.40;2.17;;;14.30;99.90;;;;;;5014037;28;20242;-62
2022/05/22 04:51:03;;;;;;;3.90;1.87;;;14.40;99.90;;;;;;5013765;28;20207;-62
2022/05/22 04:53:30;;;;;;;3.13;1.83;;;14.40;99.90;;;;;;5013799;28;20426;-63
2022/05/22 04:55:58;;;;;;;2.57;1.87;;;14.50;99.90;;;;;;5014069;28;20237;-62
2022/05/22 04:58:24;;;;;;;2.20;1.90;;;14.60;99.90;;;;;;5013965;28;20207;-62
2022/05/22 05:00:52;;;;;;;2.57;1.90;;;14.80;99.90;;;;;;5014469;28;20273;-62
2022/05/22 05:03:19;;;;;;;3.23;1.87;;;14.90;99.90;;;;;;5013262;28;20222;-62
2022/05/22 05:05:55;;;;;;;2.47;1.90;;;15.00;99.90;;;;;;5013968;28;20610;-61
2022/05/22 05:08:23;;;;;;;3.50;1.87;;;15.20;99.90;;;;;;5013924;28;20221;-63
2022/05/22 05:10:51;;;;;;;4.97;1.90;;;15.20;99.90;;;;;;5013776;28;20214;-62
2022/05/22 05:16:03;;;;;;;2.83;1.80;;;15.30;99.90;;;;;;4973313;28;20227;-61
2022/05/22 05:18:30;;;;;;;5.57;2.20;;;15.40;99.90;;;;;;4955924;29;20212;-61
2022/05/22 05:21:01;;;;;;;4.07;1.97;;;15.50;99.90;;;;;;4955496;29;20212;-60
2022/05/22 05:23:28;;;;;;;3.93;1.73;;;15.70;99.90;;;;;;4955448;28;20208;-61
2022/05/22 05:25:55;;;;;;;2.20;1.57;;;15.80;99.90;;;;;;4955448;29;20216;-60
2022/05/22 05:28:22;;;;;;;2.53;1.73;;;16.00;99.90;;;;;;4955113;28;20209;-61
2022/05/22 05:30:48;;;;;;;2.43;1.60;;;17.10;99.90;;;;;;4954964;28;20226;-61
2022/05/22 05:33:15;;;;;;;2.55;1.30;;;18.80;99.90;;;;;;4954892;29;20654;-61
2022/05/22 05:35:43;;;;;;;4.50;1.70;;;20.80;99.90;;;;;;4954973;28;20205;-61
2022/05/22 05:38:11;;;;;;;2.03;1.42;;;22.70;99.90;;;;;;4955284;28;20213;-61
2022/05/22 05:40:39;;;;;;;2.45;1.50;;;24.30;99.90;;;;;;4954970;28;20204;-62
2022/05/22 05:43:06;;;;;;;5.85;1.50;;;25.50;97.40;;;;;;4953963;28;20296;-61
2022/05/22 05:45:34;;;;;;;3.28;1.77;;;26.50;94.10;;;;;;4954818;28;20232;-60
2022/05/22 05:48:00;;;;;;;1.90;1.40;;;27.20;91.40;;;;;;4955022;29;20213;-62
2022/05/22 05:50:27;;;;;;;2.17;1.42;;;27.80;88.10;;;;;;4954742;29;20209;-60
2022/05/22 05:52:57;;;;;;;5.35;1.38;;;28.20;83.10;;;;;;4954511;29;20232;-61
2022/05/22 05:55:25;;;;;;;1.50;1.30;;;28.20;81.00;;;;;;4954689;29;20225;-61
2022/05/22 05:57:53;;;;;;;2.58;1.50;;;28.10;80.70;;;;;;4954803;28;20215;-61
2022/05/22 06:00:22;;;;;;;2.72;1.60;;;28.00;79.20;;;;;;4954781;28;20213;-62
2022/05/22 06:02:49;;;;;;;2.50;1.50;;;27.60;78.70;;;;;;4954597;29;20205;-62
2022/05/22 06:05:16;;;;;;;3.83;1.40;;;27.40;79.30;;;;;;4954498;28;20225;-61
2022/05/22 06:07:43;;;;;;;7.80;1.95;;;28.00;78.30;;;;;;4954543;29;20212;-62
2022/05/22 06:10:12;;;;;;;5.75;1.85;;;28.90;74.60;;;;;;4954571;28;20215;-62
2022/05/22 06:12:40;;;;;;;1.70;1.40;;;29.90;71.80;;;;;;4955227;29;20264;-62
2022/05/22 06:15:08;;;;;;;9.85;1.60;;;30.70;67.70;;;;;;4955518;28;20244;-62
2022/05/22 06:17:36;;;;;;;4.32;1.65;;;31.30;64.90;;;;;;4955665;28;20213;-62
2022/05/22 06:20:06;;;;;;;2.80;1.50;;;31.90;62.80;;;;;;4954859;29;20571;-62
2022/05/22 06:22:34;;;;;;;5.40;1.58;;;32.40;60.10;;;;;;4954356;29;20213;-62
2022/05/22 06:25:02;;;;;;;3.75;1.75;;;32.50;59.30;;;;;;4954148;29;20233;-62
2022/05/22 06:27:29;;;;;;;4.78;1.60;;;32.70;58.10;;;;;;4954279;28;20219;-62
2022/05/22 06:29:57;;;;;;;4.50;1.73;;;33.00;57.10;;;;;;4954329;29;20291;-62
2022/05/22 06:32:24;;;;;;;4.20;1.50;;;33.40;56.10;;;;;;4954024;28;20236;-62
2022/05/22 06:34:51;;;;;;;3.65;1.42;;;33.20;56.00;;;;;;4953913;29;20260;-61
2022/05/22 06:37:20;;;;;;;1.88;1.15;;;33.10;56.10;;;;;;4954029;29;20213;-61
2022/05/22 06:39:54;;;;;;;2.95;1.90;;;33.30;55.80;;;;;;4954333;29;20616;-62
2022/05/22 06:42:24;;;;;;;3.35;1.40;;;33.90;54.70;;;;;;4953894;28;20669;-62
2022/05/22 06:44:52;;;;;;;3.35;1.40;;;34.60;53.60;;;;;;4953666;29;20233;-62
2022/05/22 06:47:20;;;;;;;3.28;1.45;;;35.20;52.00;;;;;;4953861;28;20725;-61
2022/05/22 06:49:47;;;;;;;4.63;1.30;;;35.80;50.50;;;;;;4953852;29;20311;-61
2022/05/22 06:52:14;;;;;;;1.52;1.30;;;35.80;50.70;;;;;;4954259;29;20696;-61
2022/05/22 06:54:41;;;;;;;4.68;1.40;;;36.30;49.20;;;;;;4957333;28;20229;-60
2022/05/22 06:57:08;;;;;;;3.13;1.60;;;36.90;48.90;;;;;;4958028;29;20268;-60
2022/05/22 06:59:35;;;;;;;2.40;1.20;;;37.70;47.10;;;;;;4957834;29;20207;-60
2022/05/22 07:02:02;;;;;;;4.45;1.60;;;38.50;45.10;;;;;;4957826;28;20211;-60
2022/05/22 07:04:31;;;;;;;1.33;1.00;;;39.00;44.30;;;;;;4957511;28;20681;-60
2022/05/22 07:06:58;;;;;;;2.83;1.40;;;39.40;43.90;;;;;;4958068;28;20213;-61
2022/05/22 07:09:24;;;;;;;2.55;1.33;;;40.20;42.80;;;;;;4957940;28;20212;-60
2022/05/22 07:11:54;;;;;;;2.08;1.52;;;40.10;41.20;;;;;;4961148;29;20237;-60
2022/05/22 07:14:22;;;;;;;2.60;1.67;;;39.50;42.60;;;;;;4958846;28;20232;-60
2022/05/22 07:16:48;;;;;;;4.57;3.20;;;39.30;42.30;;;;;;4957668;29;20208;-60
2022/05/22 07:19:17;;;;;;;3.67;2.00;;;39.70;42.50;;;;;;4957950;28;20267;-61
2022/05/22 07:21:46;;;;;;;3.15;1.80;;;40.50;41.90;;;;;;4957727;29;20215;-60
2022/05/22 07:24:13;;;;;;;2.38;1.70;;;40.20;41.70;;;;;;4957513;29;20240;-60
2022/05/22 07:26:40;;;;;;;2.25;1.58;;;40.40;41.30;;;;;;4957648;29;20213;-61
2022/05/22 07:29:07;;;;;;;2.22;1.80;;;41.00;40.50;;;;;;4957399;28;20677;-61
2022/05/22 07:31:34;;;;;;;3.88;2.05;;;41.50;39.40;;;;;;4957352;29;20220;-61
2022/05/22 07:34:01;;;;;;;3.00;1.30;;;41.80;39.10;;;;;;4957115;29;20327;-61
2022/05/22 07:36:28;;;;;;;1.75;1.20;;;42.00;37.90;;;;;;4957745;28;20220;-61
2022/05/22 07:38:56;;;;;;;3.00;1.38;;;40.50;39.60;;;;;;4958537;29;20235;-61
2022/05/22 07:41:22;;;;;;;2.95;2.35;;;39.30;40.80;;;;;;4957340;29;20205;-60
2022/05/22 07:43:49;;;;;;;3.17;1.30;;;39.40;40.60;;;;;;4958076;29;20220;-61
2022/05/22 07:46:16;;;;;;;2.58;1.33;;;39.80;39.70;;;;;;4957875;29;20213;-59
2022/05/22 07:48:44;;;;;;;3.75;1.30;;;38.00;42.30;;;;;;4958174;28;20209;-60
2022/05/22 07:51:11;;;;;;;4.45;1.45;;;37.70;42.80;;;;;;4958010;29;20213;-60
2022/05/22 07:53:38;;;;;;;2.22;1.10;;;38.20;42.00;;;;;;4957207;28;20740;-62
2022/05/22 07:56:07;;;;;;;1.80;1.23;;;39.00;41.30;;;;;;4957948;28;20695;-61
2022/05/22 07:58:34;;;;;;;2.58;1.30;;;38.80;41.40;;;;;;4958776;28;20245;-61
2022/05/22 08:01:02;;;;;;;3.85;1.42;;;38.40;41.50;;;;;;4958626;29;20583;-61
2022/05/22 08:03:29;;;;;;;3.15;1.13;;;37.20;43.20;;;;;;4957544;28;20212;-61
2022/05/22 08:05:56;;;;;;;2.42;1.27;;;36.60;43.40;;;;;;4956661;28;20212;-61
2022/05/22 08:08:23;;;;;;;4.72;1.20;;;35.70;44.70;;;;;;4956892;28;20244;-61
2022/05/22 08:10:50;;;;;;;2.03;1.25;;;35.50;44.70;;;;;;4956701;29;20209;-61
2022/05/22 08:13:18;;;;;;;1.95;1.23;;;36.00;43.40;;;;;;4956429;28;20241;-61
2022/05/22 08:15:45;;;;;;;3.85;1.20;;;36.70;42.40;;;;;;4957130;29;20221;-60
2022/05/22 08:18:12;;;;;;;3.33;1.20;;;35.70;44.10;;;;;;4957232;28;20209;-61
2022/05/22 08:20:40;;;;;;;3.00;1.00;;;35.90;42.80;;;;;;4957066;28;20315;-60
2022/05/22 08:23:10;;;;;;;2.22;1.15;;;36.00;42.80;;;;;;4958276;28;20223;-59
2022/05/22 08:25:37;;;;;;;2.45;1.10;;;34.60;43.80;;;;;;4958334;28;20233;-61
2022/05/22 08:28:05;;;;;;;2.22;1.10;;;34.30;44.50;;;;;;4958369;29;20217;-60
2022/05/22 08:30:34;;;;;;;1.55;1.40;;;35.40;43.90;;;;;;4957441;29;20248;-60
2022/05/22 08:33:02;;;;;;;2.20;0.80;;;36.40;42.10;;;;;;4956597;29;20239;-61
2022/05/22 08:35:31;;;;;;;2.08;0.90;;;37.00;38.90;;;;;;4956784;29;20240;-61
2022/05/22 08:37:58;;;;;;;1.30;0.90;;;36.60;39.50;;;;;;4956631;29;20744;-62
2022/05/22 08:40:26;;;;;;;2.67;0.90;;;35.70;41.30;;;;;;4956621;29;20301;-62
2022/05/22 08:43:01;;;;;;;2.17;0.95;;;34.10;43.80;;;;;;4956497;29;20212;-60
2022/05/22 08:45:31;;;;;;;2.05;0.93;;;32.10;45.80;;;;;;4956796;29;20233;-59
2022/05/22 08:48:07;;;;;;;2.78;1.27;;;30.60;47.60;;;;;;4956813;28;20757;-59
2022/05/22 08:50:35;;;;;;;3.00;1.13;;;29.30;49.40;;;;;;4956657;28;20218;-60
2022/05/22 08:53:04;;;;;;;1.65;0.90;;;28.30;51.30;;;;;;4956053;29;20228;-60
2022/05/22 09:01:12;;;;;;;2.58;1.35;;;26.00;56.50;;;;;;4956058;28;20244;-59
2022/05/22 09:03:48;;;;;;;2.15;0.93;;;25.10;58.00;;;;;;4955721;29;20731;-59
2022/05/22 09:06:18;;;;;;;6.82;1.10;;;24.50;58.80;;;;;;4956550;29;20232;-65
2022/05/22 09:08:48;;;;;;;2.40;1.00;;;24.10;59.70;;;;;;4955998;28;20215;-59
2022/05/22 09:11:20;;;;;;;2.80;1.45;;;23.90;60.80;;;;;;4956437;28;20212;-59
2022/05/22 09:13:53;;;;;;;6.53;1.30;;;23.60;62.10;;;;;;4955785;29;20241;-60
2022/05/22 09:16:28;;;;;;;3.65;1.48;;;23.50;62.80;;;;;;4955679;28;20706;-59
2022/05/22 09:19:03;;;;;;;4.18;1.20;;;23.30;65.10;;;;;;4956638;28;20231;-58
2022/05/22 09:21:33;;;;;;;1.63;0.98;;;23.50;64.00;;;;;;4955797;29;20212;-60
2022/05/22 09:24:02;;;;;;;1.05;0.85;;;23.70;63.90;;;;;;4956249;28;20229;-59
2022/05/22 09:26:42;;;;;;;3.15;1.00;;;23.80;63.10;;;;;;4959582;29;20603;-60
2022/05/22 09:29:24;;;;;;;2.47;1.10;;;23.70;63.00;;;;;;4959584;28;20589;-61
2022/05/22 09:31:58;;;;;;;3.80;1.50;;;23.60;63.40;;;;;;4958440;28;20220;-59
2022/05/22 09:34:33;;;;;;;4.55;1.08;;;23.60;68.80;;;;;;4957097;28;20237;-60
2022/05/22 09:37:11;;;;;;;4.32;1.05;;;23.60;64.20;;;;;;4956630;28;20216;-61
2022/05/22 09:39:56;;;;;;;4.35;1.30;;;23.40;64.80;;;;;;4956138;28;20223;-61
2022/05/22 09:42:41;;;;;;;2.65;1.00;;;23.40;65.50;;;;;;4955594;28;20627;-67
2022/05/22 09:45:21;;;;;;;2.10;0.90;;;23.70;64.60;;;;;;4955324;28;20236;-60
2022/05/22 09:48:06;;;;;;;2.45;0.90;;;23.80;63.70;;;;;;4955485;29;20212;-65
2022/05/22 09:50:44;;;;;;;4.68;1.17;;;23.70;62.40;;;;;;4955730;29;20216;-60
2022/05/22 09:53:24;;;;;;;2.83;1.25;;;23.70;65.20;;;;;;4954866;28;20720;-61
2022/05/22 09:55:51;;;;;;;3.85;2.67;;;23.60;67.00;;;;;;4955155;28;20283;-60
2022/05/22 09:58:34;;;;;;;2.85;1.30;;;23.80;67.40;;;;;;4955363;28;20232;-58
2022/05/22 10:01:10;;;;;;;1.88;1.30;;;23.90;66.10;;;;;;4954824;28;20209;-59
2022/05/22 10:03:46;;;;;;;3.63;2.28;;;23.80;66.70;;;;;;4954742;29;20324;-59
2022/05/22 10:06:25;;;;;;;1.80;1.17;;;23.90;67.20;;;;;;4955132;28;20213;-58
2022/05/22 10:09:02;;;;;;;2.20;0.95;;;24.10;65.40;;;;;;4954621;28;20719;-58
2022/05/22 10:11:38;;;;;;;2.25;1.60;;;24.20;63.30;;;;;;4954748;28;20573;-58
2022/05/22 10:14:20;;;;;;;3.53;1.92;;;24.10;64.00;;;;;;4954186;28;20259;-59
2022/05/22 10:16:57;;;;;;;2.97;1.15;;;23.90;64.50;;;;;;4954767;29;20248;-59
2022/05/22 10:19:34;;;;;;;3.10;1.20;;;23.80;64.00;;;;;;4954643;28;20710;-59
2022/05/22 10:22:11;;;;;;;3.10;1.10;;;23.90;64.40;;;;;;4954741;29;20216;-58
2022/05/22 10:24:53;;;;;;;4.85;1.50;;;24.10;64.40;;;;;;4954632;29;20224;-59
2022/05/22 10:27:40;;;;;;;2.05;1.23;;;24.20;66.70;;;;;;4954560;28;20754;-57
2022/05/22 10:30:12;;;;;;;4.47;1.48;;;24.40;66.20;;;;;;4954798;28;20219;-57
2022/05/22 10:32:42;;;;;;;3.20;1.30;;;24.30;65.90;;;;;;4955025;28;20239;-57
2022/05/22 10:35:14;;;;;;;1.92;1.00;;;24.40;64.40;;;;;;4955542;28;20291;-58
2022/05/22 10:37:49;;;;;;;2.40;1.08;;;24.50;63.10;;;;;;4955202;29;20291;-56
2022/05/22 10:40:19;;;;;;;117.00;33.03;;;24.40;62.00;;;;;;4955588;28;20467;-57
2022/05/22 10:42:49;;;;;;;56.10;19.58;;;24.30;65.90;;;;;;4955503;29;20287;-57
2022/05/22 10:45:25;;;;;;;19.55;7.15;;;24.50;65.80;;;;;;4955632;28;20220;-57
2022/05/22 10:47:54;;;;;;;13.35;8.13;;;24.70;64.20;;;;;;4955361;29;20223;-57
2022/05/22 10:50:24;;;;;;;5.00;2.58;;;24.90;63.60;;;;;;4955484;28;20228;-57
2022/05/22 10:52:53;;;;;;;1.88;0.82;;;25.00;62.80;;;;;;4954670;28;20672;-58
2022/05/22 10:55:32;;;;;;;6.88;4.07;;;25.10;62.70;;;;;;4954581;28;20239;-57
2022/05/22 10:58:01;;;;;;;6.72;2.70;;;25.00;63.80;;;;;;4955093;28;20658;-57
2022/05/22 11:00:28;;;;;;;1.65;1.05;;;24.90;65.40;;;;;;4954864;28;20205;-59
2022/05/22 11:02:55;;;;;;;4.85;1.00;;;25.00;60.70;;;;;;4955099;28;20583;-58
2022/05/22 11:05:26;;;;;;;2.85;1.10;;;25.00;60.60;;;;;;4954437;28;20292;-59
2022/05/22 11:07:55;;;;;;;1.48;1.00;;;24.80;60.80;;;;;;4954482;29;20213;-58
2022/05/22 11:10:25;;;;;;;1.67;1.00;;;24.60;59.70;;;;;;4954989;29;20263;-57
2022/05/22 11:13:04;;;;;;;3.42;1.60;;;24.40;61.00;;;;;;4954234;29;20208;-57
2022/05/22 11:15:34;;;;;;;3.80;1.55;;;24.30;63.10;;;;;;5058076;23;20229;-55
2022/05/22 11:18:06;;;;;;;1.70;1.40;;;24.50;63.10;;;;;;5052196;28;20251;-55
2022/05/22 11:20:33;;;;;;;3.30;1.17;;;24.70;62.80;;;;;;5052293;28;20581;-55
2022/05/22 11:23:12;;;;;;;0.80;0.75;;;25.00;59.50;;;;;;5052083;28;20205;-56
2022/05/22 11:25:48;;;;;;;4.40;1.60;;;25.10;61.40;;;;;;5051407;28;20272;-55
2022/05/22 11:28:39;;;;;;;3.50;1.30;;;25.00;62.60;;;;;;5051687;28;20212;-56
2022/05/22 11:31:22;;;;;;;1.77;1.20;;;24.90;59.70;;;;;;5051463;28;20621;-56
2022/05/22 11:34:03;;;;;;;2.15;1.05;;;24.80;62.20;;;;;;5051364;28;20225;-55
2022/05/22 11:36:45;;;;;;;2.05;0.98;;;24.90;58.10;;;;;;5051733;28;20206;-55
2022/05/22 11:39:26;;;;;;;1.48;0.85;;;24.80;57.60;;;;;;5051613;28;20780;-55
2022/05/22 11:41:56;;;;;;;2.80;1.10;;;24.60;59.00;;;;;;5056258;28;20590;-55
2022/05/22 11:44:57;;;;;;;3.42;1.17;;;24.60;60.20;;;;;;5055503;28;20226;-55
2022/05/22 11:47:35;;;;;;;1.95;1.13;;;24.80;60.40;;;;;;5055622;28;20209;-54
2022/05/22 11:50:11;;;;;;;2.47;1.05;;;25.00;61.90;;;;;;5055286;28;20198;-55
2022/05/22 11:52:56;;;;;;;2.38;1.42;;;25.20;62.60;;;;;;5054893;28;20205;-54
2022/05/22 11:55:34;;;;;;;5.15;3.72;;;25.40;59.60;;;;;;5054398;28;20217;-54
2022/05/22 11:58:14;;;;;;;3.50;2.63;;;25.30;61.90;;;;;;5054941;28;20213;-54
2022/05/22 12:00:47;;;;;;;1.67;1.20;;;25.50;61.20;;;;;;5054753;28;20587;-54
2022/05/22 12:03:46;;;;;;;1.55;1.05;;;25.70;59.50;;;;;;5054437;28;20295;-53
2022/05/22 12:06:23;;;;;;;2.22;1.05;;;25.80;59.20;;;;;;5054501;28;20241;-56
2022/05/22 12:09:10;;;;;;;4.00;2.40;;;25.80;57.10;;;;;;5054589;28;20263;-54
2022/05/22 12:11:46;;;;;;;3.80;1.40;;;25.70;59.30;;;;;;5054825;28;20206;-54
2022/05/22 12:14:25;;;;;;;3.35;1.83;;;25.70;58.10;;;;;;5054083;28;20233;-54
2022/05/22 12:16:59;;;;;;;2.60;1.70;;;25.70;58.40;;;;;;5054587;28;20209;-55
2022/05/22 12:19:34;;;;;;;2.13;1.17;;;25.80;58.80;;;;;;5054633;28;20669;-55
2022/05/22 12:22:13;;;;;;;3.65;1.67;;;25.90;58.00;;;;;;5055628;28;20213;-54
2022/05/22 12:24:47;;;;;;;1.98;1.15;;;26.10;57.50;;;;;;5054847;28;20336;-57
2022/05/22 12:27:22;;;;;;;3.03;1.15;;;26.20;56.80;;;;;;5055372;28;20221;-54
2022/05/22 12:29:59;;;;;;;2.03;1.10;;;26.40;56.50;;;;;;5055113;28;20296;-53
2022/05/22 12:32:29;;;;;;;2.30;1.13;;;26.50;55.20;;;;;;5054647;28;20209;-57
2022/05/22 12:34:59;;;;;;;2.55;1.10;;;26.50;56.40;;;;;;5054263;28;20233;-54
2022/05/22 12:37:32;;;;;;;229.05;57.60;;;26.70;56.20;;;;;;5054234;28;20209;-56
2022/05/22 12:40:11;;;;;;;203.88;55.30;;;27.00;56.10;;;;;;5054705;28;20190;-57
2022/05/22 12:42:45;;;;;;;6.10;1.80;;;27.20;56.60;;;;;;5054311;28;20258;-58
2022/05/22 12:45:12;;;;;;;2.28;1.20;;;27.40;55.90;;;;;;5051646;28;20606;-64
2022/05/22 12:47:45;;;;;;;9.57;3.03;;;27.40;55.80;;;;;;5052250;28;20213;-61
2022/05/22 12:50:24;;;;;;;7.63;2.05;;;27.40;56.10;;;;;;5044150;28;20472;-62
2022/05/22 12:52:52;;;;;;;10.02;4.05;;;27.30;52.30;;;;;;5050955;28;20206;-64
2022/05/22 12:55:29;;;;;;;2.65;1.60;;;27.40;53.80;;;;;;5052959;28;20237;-62
2022/05/22 12:57:59;;;;;;;2.85;0.90;;;27.40;54.10;;;;;;5054251;28;20201;-57
2022/05/22 13:00:37;;;;;;;1.77;1.13;;;27.40;53.40;;;;;;5053639;28;20210;-55
2022/05/22 13:03:18;;;;;;;3.20;1.10;;;27.40;53.40;;;;;;5053655;28;20213;-56
2022/05/22 13:05:56;;;;;;;2.17;0.82;;;27.50;54.20;;;;;;5053487;28;20225;-57
2022/05/22 13:08:30;;;;;;;1.67;1.10;;;27.40;55.50;;;;;;5053737;28;20606;-56
2022/05/22 13:10:59;;;;;;;3.95;1.17;;;27.10;55.90;;;;;;5053666;28;20217;-58